PDT,Max TemperatureF,Mean TemperatureF,Min TemperatureF,Max Dew PointF,MeanDew PointF,Min DewpointF,Max Humidity, Mean Humidity, Min Humidity, Max Sea Level PressureIn, Mean Sea Level PressureIn, Min Sea Level PressureIn, Max VisibilityMiles, Mean VisibilityMiles, Min VisibilityMiles, Max Wind SpeedMPH, Mean Wind SpeedMPH, Max Gust SpeedMPH,PrecipitationIn, CloudCover, Events, WindDirDegrees
2012-10-1,111,95,79,41,31,22,23,14,5,29.90,29.83,29.75,10,10,10,14,5,17,0.00,0,,309
2012-10-2,109,95,80,49,34,24,21,13,5,29.81,29.76,29.69,10,10,10,13,7,16,0.00,0,,332
2012-10-3,105,90,75,49,41,32,38,23,8,29.86,29.81,29.75,10,10,10,15,5,25,0.00,0,,38
2012-10-4,99,84,69,49,41,31,47,29,10,29.95,29.89,29.85,10,10,10,16,2,21,0.00,1,,295
2012-10-5,97,82,67,50,40,29,40,25,9,29.94,29.87,29.82,10,10,10,7,1,9,0.00,1,,297
2012-10-6,96,81,66,51,45,38,58,36,14,29.86,29.80,29.74,10,10,10,15,1,20,0.00,2,,308
2012-10-7,97,82,67,56,48,35,53,33,12,29.84,29.79,29.73,10,10,10,13,2,15,0.00,0,,300
2012-10-8,96,81,66,58,50,35,66,40,13,29.87,29.82,29.77,10,10,10,16,3,22,0.00,0,,328
2012-10-9,92,78,64,54,48,36,59,37,14,29.88,29.83,29.78,10,10,10,17,4,21,0.00,0,,343
2012-10-10,86,74,62,54,49,41,72,47,22,29.89,29.82,29.76,10,10,10,16,5,24,0.00,1,,313
2012-10-11,78,72,66,48,44,40,47,37,27,29.88,29.82,29.78,10,10,10,20,14,33,0.00,2,,315
2012-10-12,79,67,55,49,44,40,67,47,27,30.08,30.00,29.89,10,10,10,21,5,26,0.00,1,,317
2012-10-13,86,72,57,49,45,40,72,48,23,30.15,30.08,29.99,10,10,10,8,2,12,0.00,0,,327
2012-10-14,95,80,65,45,42,39,42,28,14,30.07,29.99,29.91,10,10,10,13,6,15,0.00,0,,313
2012-10-15,98,84,70,43,38,31,31,21,10,29.94,29.87,29.78,10,10,10,10,5,18,0.00,0,,349
2012-10-16,99,85,71,48,38,30,29,20,10,29.83,29.76,29.68,10,10,10,14,6,16,0.00,0,,346
2012-10-17,93,81,69,48,43,38,38,28,18,29.88,29.80,29.74,10,10,10,12,7,15,0.00,0,,16
2012-10-18,95,80,65,59,50,41,52,36,19,30.01,29.93,29.88,10,10,10,14,3,17,0.00,1,,331
2012-10-19,98,82,66,59,47,23,78,43,7,29.92,29.84,29.74,10,10,10,10,4,13,0.00,0,,298
2012-10-20,92,78,64,57,52,46,66,44,21,29.78,29.71,29.65,10,10,10,21,3,24,0.00,0,,317
2012-10-21,83,73,63,57,52,48,73,54,34,29.78,29.74,29.70,10,10,10,25,7,32,0.00,0,,302
2012-10-22,83,72,60,53,48,41,63,44,24,29.88,29.82,29.77,10,10,10,20,3,24,0.00,0,,309
2012-10-23,81,69,57,49,43,37,72,47,21,29.88,29.82,29.77,10,10,10,18,3,23,0.00,1,,300
2012-10-24,80,67,54,44,39,30,62,39,16,29.97,29.90,29.82,10,10,10,10,2,15,0.00,0,,288
2012-10-25,84,70,56,41,29,16,49,29,9,30.04,29.99,29.93,10,10,10,10,2,13,0.00,0,,303
2012-10-26,82,74,66,22,18,10,18,13,8,30.16,30.07,29.99,10,10,10,13,7,16,0.00,0,,315
2012-10-27,90,75,60,31,17,8,16,11,6,29.97,29.92,29.84,10,10,10,8,4,,0.00,0,,300
2012-10-28,89,75,61,29,24,20,22,16,9,29.98,29.93,29.88,10,10,10,12,6,24,0.00,0,,1
2012-10-29,91,75,58,42,30,21,47,28,8,30.04,29.99,29.95,10,10,10,12,5,14,0.00,0,,16
2012-10-30,91,74,57,38,30,23,42,26,9,30.00,29.96,29.90,10,10,9,12,5,15,0.00,0,,359
2012-10-31,90,73,56,43,35,25,47,29,10,29.97,29.91,29.86,10,10,10,10,5,13,0.00,0,,348